Time;durP1;ratioP1;P1;durP2;ratioP2;P2;SDS_P1;SDS_P2;PMS_P1;PMS_P2;Temp;Humidity;BMP_temperature;BMP_pressure;BME280_temperature;BME280_humidity;BME280_pressure;Samples;Min_cycle;Max_cycle;Signal;HPM_P1;HPM_P2
2021/07/16 00:02:04;;;;;;;2.95;2.40;;;15.50;99.90;;;;;;4947419;29;20118;-78
2021/07/16 00:04:29;;;;;;;2.75;2.10;;;15.50;99.90;;;;;;4925868;29;20115;-78
2021/07/16 00:06:55;;;;;;;1.73;1.63;;;15.50;99.90;;;;;;4918347;29;20099;-78
2021/07/16 00:09:21;;;;;;;2.15;1.77;;;15.50;99.90;;;;;;4945253;29;20035;-79
2021/07/16 00:11:47;;;;;;;2.05;1.70;;;15.50;99.90;;;;;;4931365;29;20040;-78
2021/07/16 00:14:13;;;;;;;1.73;1.63;;;15.50;99.90;;;;;;4917239;29;20032;-79
2021/07/16 00:16:38;;;;;;;2.88;1.42;;;15.50;99.90;;;;;;4936417;29;20028;-78
2021/07/16 00:19:06;;;;;;;1.25;1.15;;;15.50;99.90;;;;;;4936725;29;20031;-79
2021/07/16 00:21:31;;;;;;;1.63;1.52;;;15.50;99.90;;;;;;4936968;29;20402;-78
2021/07/16 00:23:57;;;;;;;2.60;1.60;;;15.40;99.90;;;;;;4925292;29;20029;-78
2021/07/16 00:26:23;;;;;;;2.40;1.67;;;15.50;99.90;;;;;;4924459;29;20023;-78
2021/07/16 00:28:49;;;;;;;1.95;1.73;;;15.40;99.90;;;;;;4937287;29;20438;-78
2021/07/16 00:31:15;;;;;;;3.30;1.80;;;15.40;99.90;;;;;;4937394;29;20027;-78
2021/07/16 00:33:41;;;;;;;3.05;1.80;;;15.40;99.90;;;;;;4946719;29;20119;-78
2021/07/16 00:36:07;;;;;;;1.70;1.60;;;15.30;99.90;;;;;;4907416;29;20576;-78
2021/07/16 00:38:32;;;;;;;1.77;1.67;;;15.30;99.90;;;;;;4929346;29;20102;-78
2021/07/16 00:40:58;;;;;;;1.88;1.75;;;15.30;99.90;;;;;;4935216;29;20019;-78
2021/07/16 00:43:24;;;;;;;2.80;1.80;;;15.30;99.90;;;;;;4938477;29;20402;-78
2021/07/16 00:45:51;;;;;;;2.17;1.98;;;15.20;99.90;;;;;;4938484;29;20024;-78
2021/07/16 00:48:17;;;;;;;2.95;1.65;;;15.20;99.90;;;;;;4936909;29;20545;-78
2021/07/16 00:50:43;;;;;;;1.90;1.80;;;15.10;99.90;;;;;;4937007;29;20390;-79
2021/07/16 00:53:10;;;;;;;2.53;1.85;;;15.00;99.90;;;;;;4937430;29;20098;-78
2021/07/16 00:55:37;;;;;;;2.50;1.92;;;15.00;99.90;;;;;;4938497;29;20050;-78
2021/07/16 00:58:03;;;;;;;2.28;2.08;;;15.00;99.90;;;;;;4932893;29;20079;-78
2021/07/16 01:00:29;;;;;;;3.75;2.00;;;15.10;99.90;;;;;;4935181;29;20279;-78
2021/07/16 01:02:55;;;;;;;4.95;2.40;;;15.10;99.90;;;;;;4935006;29;20434;-78
2021/07/16 01:05:22;;;;;;;2.92;2.47;;;15.00;99.90;;;;;;4938705;29;20055;-78
2021/07/16 01:07:50;;;;;;;3.15;2.30;;;14.80;99.90;;;;;;4938491;29;20031;-78
2021/07/16 01:10:17;;;;;;;2.83;2.10;;;14.70;99.90;;;;;;4939304;29;20055;-78
2021/07/16 01:12:44;;;;;;;2.65;2.33;;;14.60;99.90;;;;;;4937207;29;20036;-78
2021/07/16 01:15:16;;;;;;;2.25;2.05;;;14.60;99.90;;;;;;4939124;29;20047;-78
2021/07/16 01:17:43;;;;;;;2.58;2.38;;;14.50;99.90;;;;;;4939032;29;20043;-78
2021/07/16 01:20:22;;;;;;;2.40;2.10;;;14.40;99.90;;;;;;4937969;29;20091;-78
2021/07/16 01:22:49;;;;;;;3.33;2.72;;;14.40;99.90;;;;;;4937891;29;20123;-78
2021/07/16 01:25:21;;;;;;;2.35;2.15;;;14.40;99.90;;;;;;4939489;29;20067;-78
2021/07/16 01:27:53;;;;;;;3.85;2.63;;;14.30;99.90;;;;;;4947646;29;20108;-78
2021/07/16 01:30:21;;;;;;;3.08;2.25;;;14.40;99.90;;;;;;4937360;29;20091;-78
2021/07/16 01:32:48;;;;;;;2.83;2.40;;;14.40;99.90;;;;;;4938738;29;20496;-78
2021/07/16 01:35:14;;;;;;;4.47;2.50;;;14.30;99.90;;;;;;4938163;29;20035;-79
2021/07/16 01:37:41;;;;;;;3.00;2.70;;;14.30;99.90;;;;;;4938847;29;20049;-78
2021/07/16 01:40:10;;;;;;;2.60;2.38;;;14.30;99.90;;;;;;4939783;29;20394;-78
2021/07/16 01:42:37;;;;;;;4.55;2.60;;;14.30;99.90;;;;;;4938529;29;20032;-78
2021/07/16 01:45:09;;;;;;;3.42;2.45;;;14.20;99.90;;;;;;4921139;29;20036;-79
2021/07/16 01:47:37;;;;;;;3.70;2.38;;;14.20;99.90;;;;;;4939492;29;20474;-78
2021/07/16 01:50:05;;;;;;;2.50;2.30;;;14.20;99.90;;;;;;4933743;29;20114;-78
2021/07/16 01:52:32;;;;;;;3.83;2.33;;;14.20;99.90;;;;;;4933272;29;20118;-78
2021/07/16 01:54:57;;;;;;;3.15;2.60;;;14.20;99.90;;;;;;4940415;29;20039;-78
2021/07/16 01:57:23;;;;;;;3.10;2.67;;;14.20;99.90;;;;;;4930525;29;20075;-78
2021/07/16 01:59:49;;;;;;;3.15;2.00;;;14.20;99.90;;;;;;4933925;29;20529;-78
2021/07/16 02:02:15;;;;;;;2.58;2.38;;;14.10;99.90;;;;;;4951996;29;20474;-78
2021/07/16 02:04:42;;;;;;;2.97;2.20;;;14.20;99.90;;;;;;4939393;29;20027;-78
2021/07/16 02:07:08;;;;;;;2.60;2.40;;;14.20;99.90;;;;;;4938985;29;20071;-78
2021/07/16 02:09:34;;;;;;;3.53;2.47;;;14.10;99.90;;;;;;4937957;29;20057;-78
2021/07/16 02:12:00;;;;;;;4.25;1.98;;;14.10;99.90;;;;;;4938422;29;20126;-78
2021/07/16 02:14:26;;;;;;;4.35;2.40;;;14.10;99.90;;;;;;4939243;29;20031;-78
2021/07/16 02:16:54;;;;;;;3.30;2.22;;;14.10;99.90;;;;;;4934825;29;20027;-78
2021/07/16 02:19:20;;;;;;;2.45;2.25;;;14.10;99.90;;;;;;4938895;29;20063;-78
2021/07/16 02:21:46;;;;;;;3.42;2.38;;;14.10;99.90;;;;;;4939109;29;20618;-78
2021/07/16 02:24:12;;;;;;;4.55;2.55;;;14.10;99.90;;;;;;4941138;29;20039;-78
2021/07/16 02:26:38;;;;;;;3.05;2.03;;;14.10;99.90;;;;;;4940796;29;20035;-78
2021/07/16 02:29:05;;;;;;;3.35;2.75;;;14.10;99.90;;;;;;4933934;29;20059;-78
2021/07/16 02:31:31;;;;;;;3.85;2.95;;;14.20;99.90;;;;;;4932346;29;20043;-78
2021/07/16 02:33:57;;;;;;;4.18;2.47;;;14.30;99.90;;;;;;4935370;29;20094;-78
2021/07/16 02:36:23;;;;;;;2.88;1.80;;;14.30;99.90;;;;;;4934791;29;20666;-78
2021/07/16 02:38:52;;;;;;;1.85;1.75;;;14.30;99.90;;;;;;4933690;29;20055;-78
2021/07/16 02:41:18;;;;;;;4.18;1.95;;;14.40;99.90;;;;;;4937734;29;20039;-78
2021/07/16 02:43:44;;;;;;;3.55;2.63;;;14.40;99.90;;;;;;4923559;29;20029;-78
2021/07/16 02:46:11;;;;;;;6.05;2.25;;;14.40;99.90;;;;;;4929162;29;20085;-78
2021/07/16 02:48:37;;;;;;;4.43;2.10;;;14.40;99.90;;;;;;4936041;29;20434;-79
2021/07/16 02:51:03;;;;;;;2.03;1.83;;;14.40;99.90;;;;;;4937048;29;20032;-78
2021/07/16 02:53:29;;;;;;;3.08;2.42;;;14.50;99.90;;;;;;4921399;29;20398;-78
2021/07/16 02:55:55;;;;;;;4.05;2.65;;;14.50;99.90;;;;;;4935455;29;20099;-78
2021/07/16 02:58:21;;;;;;;3.95;2.80;;;14.40;99.90;;;;;;4937614;29;20042;-78
2021/07/16 03:00:47;;;;;;;4.50;3.05;;;14.30;99.90;;;;;;4938517;29;20027;-78
2021/07/16 03:03:13;;;;;;;3.40;2.80;;;14.30;99.90;;;;;;4939821;29;20043;-78
2021/07/16 03:05:39;;;;;;;3.10;2.05;;;14.30;99.90;;;;;;4940430;29;20387;-78
2021/07/16 03:08:07;;;;;;;2.53;2.33;;;14.30;99.90;;;;;;4941195;29;20082;-78
2021/07/16 03:10:45;;;;;;;3.08;2.78;;;14.30;99.90;;;;;;4940059;29;20517;-78
2021/07/16 03:13:16;;;;;;;2.97;2.50;;;14.30;99.90;;;;;;4939925;29;20047;-78
2021/07/16 03:15:42;;;;;;;4.47;2.60;;;14.30;99.90;;;;;;4940294;29;20031;-78
2021/07/16 03:18:08;;;;;;;3.28;2.58;;;14.30;99.90;;;;;;4936094;29;20032;-79
2021/07/16 03:20:38;;;;;;;3.30;2.83;;;14.30;99.90;;;;;;4940254;29;20032;-78
2021/07/16 03:23:05;;;;;;;4.30;2.55;;;14.30;99.90;;;;;;4939522;29;20043;-78
2021/07/16 03:25:32;;;;;;;2.88;2.50;;;14.30;99.90;;;;;;4929528;29;20047;-79
2021/07/16 03:27:57;;;;;;;3.83;3.03;;;14.30;99.90;;;;;;4943264;29;20059;-79
2021/07/16 03:30:26;;;;;;;2.78;2.50;;;14.30;99.90;;;;;;4920287;29;20059;-78
2021/07/16 03:32:52;;;;;;;2.85;2.55;;;14.30;99.90;;;;;;4937726;29;20087;-78
2021/07/16 03:35:19;;;;;;;3.17;2.75;;;14.30;99.90;;;;;;4922901;29;20040;-79
2021/07/16 03:37:45;;;;;;;2.90;2.65;;;14.30;99.90;;;;;;4932218;29;20098;-79
2021/07/16 03:40:14;;;;;;;3.53;2.40;;;14.30;99.90;;;;;;4940692;29;20122;-78
2021/07/16 03:42:41;;;;;;;4.55;2.67;;;14.30;99.90;;;;;;4931051;29;20031;-78
2021/07/16 03:45:12;;;;;;;2.83;2.55;;;14.30;99.90;;;;;;4939420;29;20107;-79
2021/07/16 03:47:38;;;;;;;4.22;3.20;;;14.40;99.90;;;;;;4954413;29;20020;-78
2021/07/16 03:50:04;;;;;;;3.83;2.67;;;14.40;99.90;;;;;;4940134;29;20471;-78
2021/07/16 03:52:30;;;;;;;2.90;2.50;;;14.40;99.90;;;;;;4938816;29;20042;-78
2021/07/16 03:54:55;;;;;;;4.28;3.13;;;14.40;99.90;;;;;;4939817;29;20106;-78
2021/07/16 03:57:21;;;;;;;3.25;2.92;;;14.40;99.90;;;;;;4939136;29;20053;-78
2021/07/16 03:59:47;;;;;;;4.50;2.95;;;14.40;99.90;;;;;;4938931;29;20028;-78
2021/07/16 04:02:13;;;;;;;3.00;2.70;;;14.40;99.90;;;;;;4938298;29;20647;-79
2021/07/16 04:04:39;;;;;;;3.53;3.00;;;14.40;99.90;;;;;;4938440;29;20051;-78
2021/07/16 04:07:06;;;;;;;4.00;2.47;;;14.40;99.90;;;;;;4938566;29;20035;-79
2021/07/16 04:09:34;;;;;;;4.90;2.75;;;14.40;99.90;;;;;;4936640;29;20039;-78
2021/07/16 04:12:17;;;;;;;3.33;2.50;;;14.30;99.90;;;;;;4937731;29;20504;-79
2021/07/16 04:14:48;;;;;;;9.23;2.92;;;14.10;99.90;;;;;;4939435;29;20031;-79
2021/07/16 04:17:16;;;;;;;4.75;2.80;;;14.00;99.90;;;;;;4935619;29;20115;-79
2021/07/16 04:19:43;;;;;;;3.15;2.60;;;13.90;99.90;;;;;;4936502;29;20024;-78
2021/07/16 04:22:09;;;;;;;4.68;2.85;;;14.00;99.90;;;;;;4921662;29;20483;-78
2021/07/16 04:24:36;;;;;;;2.50;2.30;;;14.00;99.90;;;;;;4935007;29;20107;-79
2021/07/16 04:27:04;;;;;;;2.45;2.25;;;14.10;99.90;;;;;;4932072;29;20096;-78
2021/07/16 04:29:31;;;;;;;2.25;2.08;;;14.10;99.90;;;;;;4933095;29;20498;-79
2021/07/16 04:31:58;;;;;;;2.33;2.13;;;14.20;99.90;;;;;;4933943;29;20035;-79
2021/07/16 04:34:25;;;;;;;6.82;2.45;;;14.30;99.90;;;;;;4936169;29;20027;-79
2021/07/16 04:36:50;;;;;;;2.72;2.53;;;14.30;99.90;;;;;;4926236;29;20052;-79
2021/07/16 04:39:16;;;;;;;2.50;2.28;;;14.40;99.90;;;;;;4932446;29;20564;-79
2021/07/16 04:41:42;;;;;;;2.90;2.53;;;14.50;99.90;;;;;;4931672;29;20483;-79
2021/07/16 04:44:08;;;;;;;3.63;3.08;;;14.60;99.90;;;;;;4908760;29;20058;-79
2021/07/16 04:46:33;;;;;;;3.13;2.38;;;14.60;99.90;;;;;;4927252;29;20147;-79
2021/07/16 04:48:59;;;;;;;3.10;2.50;;;14.70;99.90;;;;;;4927156;29;20046;-79
2021/07/16 04:51:29;;;;;;;3.25;2.50;;;14.80;99.90;;;;;;4932703;29;20036;-80
2021/07/16 04:53:56;;;;;;;2.90;2.47;;;14.80;99.90;;;;;;4915309;29;20517;-79
2021/07/16 04:56:23;;;;;;;4.45;2.47;;;14.90;99.90;;;;;;4934446;29;20035;-79
2021/07/16 04:58:49;;;;;;;4.00;2.28;;;15.00;99.90;;;;;;4933690;29;20039;-79
2021/07/16 05:01:15;;;;;;;2.20;2.00;;;15.00;99.90;;;;;;4935193;29;20034;-79
2021/07/16 05:03:41;;;;;;;2.55;2.00;;;15.00;99.90;;;;;;4935332;29;20027;-79
2021/07/16 05:06:08;;;;;;;2.08;1.88;;;15.00;99.90;;;;;;4934064;29;20039;-80
2021/07/16 05:08:33;;;;;;;9.25;2.70;;;15.10;99.90;;;;;;4927666;29;20632;-79
2021/07/16 05:10:59;;;;;;;2.20;2.00;;;15.10;99.90;;;;;;4932131;29;20124;-79
2021/07/16 05:13:26;;;;;;;1.92;1.80;;;15.20;99.90;;;;;;4930147;29;20042;-79
2021/07/16 05:15:52;;;;;;;2.30;2.10;;;15.30;99.90;;;;;;4935174;29;20031;-79
2021/07/16 05:18:17;;;;;;;2.58;2.38;;;15.30;99.90;;;;;;4934523;29;20590;-79
2021/07/16 05:20:44;;;;;;;2.97;2.50;;;15.40;99.90;;;;;;4934402;29;20027;-79
2021/07/16 05:23:10;;;;;;;2.20;2.00;;;15.50;99.90;;;;;;4926258;29;20035;-79
2021/07/16 05:25:36;;;;;;;2.33;2.08;;;15.50;99.90;;;;;;4933395;29;20456;-79
2021/07/16 05:28:02;;;;;;;8.07;4.40;;;15.60;99.90;;;;;;4933539;29;20071;-79
2021/07/16 05:30:29;;;;;;;4.55;3.22;;;15.60;99.90;;;;;;4934140;29;20098;-79
2021/07/16 05:32:55;;;;;;;3.55;3.15;;;15.60;99.90;;;;;;4932912;29;20090;-79
2021/07/16 05:35:21;;;;;;;2.95;2.65;;;15.60;99.90;;;;;;4934744;29;20023;-79
2021/07/16 05:37:47;;;;;;;2.70;2.30;;;15.60;99.90;;;;;;4930828;29;20425;-79
2021/07/16 05:40:14;;;;;;;5.38;2.50;;;15.70;99.90;;;;;;4929323;29;20031;-79
2021/07/16 05:42:41;;;;;;;3.13;1.80;;;15.70;99.90;;;;;;4933078;29;20044;-78
2021/07/16 05:45:07;;;;;;;2.42;2.22;;;15.70;99.90;;;;;;4933309;29;20043;-79
2021/07/16 05:47:32;;;;;;;2.53;2.33;;;15.80;99.90;;;;;;4931754;29;20032;-79
2021/07/16 05:49:58;;;;;;;2.45;2.17;;;15.90;99.90;;;;;;4934020;29;20038;-79
2021/07/16 05:52:26;;;;;;;2.22;2.03;;;16.00;99.90;;;;;;4934083;29;20084;-79
2021/07/16 05:54:52;;;;;;;2.33;2.13;;;16.30;99.90;;;;;;4932474;29;20062;-79
2021/07/16 05:57:18;;;;;;;2.53;2.33;;;16.40;99.90;;;;;;4934281;29;20508;-78
2021/07/16 05:59:44;;;;;;;2.38;2.15;;;16.60;99.90;;;;;;4933825;29;20028;-79
2021/07/16 06:02:10;;;;;;;2.55;2.35;;;16.80;99.90;;;;;;4933582;29;20039;-79
2021/07/16 06:04:36;;;;;;;1.88;1.77;;;17.00;99.90;;;;;;4933451;29;20028;-79
2021/07/16 06:07:03;;;;;;;2.40;2.20;;;17.00;99.90;;;;;;4931824;29;20031;-79
2021/07/16 06:09:29;;;;;;;5.88;2.85;;;17.10;99.90;;;;;;4931607;29;20027;-79
2021/07/16 06:11:55;;;;;;;2.92;2.60;;;17.10;99.90;;;;;;4933223;29;20035;-79
2021/07/16 06:14:22;;;;;;;2.30;2.10;;;17.10;99.90;;;;;;4941887;29;20032;-80
2021/07/16 06:16:49;;;;;;;2.58;2.30;;;17.20;99.90;;;;;;4933930;29;20118;-80
2021/07/16 06:19:16;;;;;;;2.47;2.15;;;17.30;99.90;;;;;;4933307;29;20023;-79
2021/07/16 06:21:42;;;;;;;2.67;2.47;;;17.30;99.90;;;;;;4929913;29;20051;-79
2021/07/16 06:24:08;;;;;;;2.50;2.30;;;17.30;99.90;;;;;;4933959;29;20051;-79
2021/07/16 06:26:35;;;;;;;3.72;2.50;;;17.40;99.90;;;;;;4933878;29;20577;-79
2021/07/16 06:29:02;;;;;;;2.60;2.40;;;17.40;99.90;;;;;;4930458;29;20052;-79
2021/07/16 06:31:28;;;;;;;2.42;2.22;;;17.50;99.90;;;;;;4929824;29;20028;-79
2021/07/16 06:33:53;;;;;;;2.55;2.35;;;17.60;99.90;;;;;;4927867;29;20103;-79
2021/07/16 06:36:19;;;;;;;3.65;2.70;;;17.80;99.90;;;;;;4930890;29;20703;-79
2021/07/16 06:38:45;;;;;;;2.65;2.45;;;18.00;99.90;;;;;;4933902;29;20479;-79
2021/07/16 06:41:11;;;;;;;3.10;2.80;;;18.30;99.90;;;;;;4935017;29;20032;-80
2021/07/16 06:43:37;;;;;;;3.55;2.45;;;18.70;99.90;;;;;;4928521;29;20027;-79
2021/07/16 06:46:03;;;;;;;3.17;2.88;;;19.10;99.90;;;;;;4933567;29;20059;-79
2021/07/16 06:48:28;;;;;;;2.55;2.25;;;19.30;99.90;;;;;;4931485;29;20062;-79
2021/07/16 06:50:54;;;;;;;3.45;2.58;;;19.60;99.90;;;;;;4932707;29;20125;-79
2021/07/16 06:53:20;;;;;;;3.03;2.78;;;20.00;99.90;;;;;;4934292;29;20066;-80
2021/07/16 06:55:46;;;;;;;2.60;2.40;;;20.40;99.90;;;;;;4933364;29;20032;-79
2021/07/16 06:58:12;;;;;;;2.38;2.17;;;20.80;99.90;;;;;;4938728;29;20070;-80
2021/07/16 07:00:37;;;;;;;2.90;2.58;;;21.00;99.90;;;;;;4921737;29;20102;-79
2021/07/16 07:03:04;;;;;;;2.40;2.20;;;21.50;99.90;;;;;;4938136;29;20024;-79
2021/07/16 07:05:30;;;;;;;2.10;2.00;;;21.90;99.90;;;;;;4935334;29;20036;-79
2021/07/16 07:07:56;;;;;;;3.78;2.00;;;22.30;99.90;;;;;;4935057;29;20032;-79
2021/07/16 07:10:22;;;;;;;2.35;1.80;;;22.90;99.90;;;;;;4935885;29;20031;-80
2021/07/16 07:12:48;;;;;;;2.25;2.05;;;23.40;99.90;;;;;;4937661;29;20090;-80
2021/07/16 07:15:14;;;;;;;1.90;1.80;;;24.00;99.90;;;;;;4936430;29;20463;-79
2021/07/16 07:17:41;;;;;;;1.95;1.85;;;24.70;99.90;;;;;;4934005;29;20055;-79
2021/07/16 07:20:08;;;;;;;3.15;1.98;;;25.20;99.90;;;;;;4933694;29;20028;-80
2021/07/16 07:22:34;;;;;;;3.05;1.92;;;25.70;99.90;;;;;;4934530;29;20035;-80
2021/07/16 07:24:59;;;;;;;2.80;1.83;;;26.30;99.90;;;;;;4936805;29;20454;-77
2021/07/16 07:27:25;;;;;;;3.22;1.88;;;26.40;99.90;;;;;;4924603;29;20175;-78
2021/07/16 07:29:51;;;;;;;2.45;2.25;;;26.40;99.90;;;;;;4935273;29;20035;-77
2021/07/16 07:32:17;;;;;;;1.83;1.70;;;26.20;99.90;;;;;;4936533;29;20050;-77
2021/07/16 07:34:43;;;;;;;1.92;1.73;;;26.20;99.90;;;;;;4943664;29;20061;-78
2021/07/16 07:37:09;;;;;;;1.80;1.70;;;26.40;99.90;;;;;;4934620;29;20036;-77
2021/07/16 07:39:35;;;;;;;3.80;1.55;;;26.70;99.90;;;;;;4933422;29;20086;-77
2021/07/16 07:42:00;;;;;;;1.77;1.50;;;26.60;99.90;;;;;;4933689;29;20036;-77
2021/07/16 07:44:26;;;;;;;2.00;1.83;;;26.70;99.90;;;;;;4934971;29;20164;-77
2021/07/16 07:46:52;;;;;;;1.55;1.45;;;26.70;99.90;;;;;;4935927;29;20034;-78
2021/07/16 07:49:18;;;;;;;1.40;1.30;;;26.60;99.90;;;;;;4936480;29;20043;-77
2021/07/16 07:51:44;;;;;;;2.00;1.90;;;26.60;99.90;;;;;;4935904;29;20379;-77
2021/07/16 07:54:10;;;;;;;1.75;1.65;;;26.40;99.20;;;;;;4934499;29;20058;-79
2021/07/16 07:56:37;;;;;;;2.20;1.77;;;26.10;99.60;;;;;;4935829;29;20039;-79
2021/07/16 07:59:04;;;;;;;2.13;1.30;;;25.70;99.90;;;;;;4938705;29;20055;-79
2021/07/16 08:01:32;;;;;;;1.42;1.33;;;25.50;99.90;;;;;;4938607;29;20044;-80
2021/07/16 08:03:59;;;;;;;1.50;1.40;;;25.40;99.90;;;;;;4936854;29;20482;-79
2021/07/16 08:06:25;;;;;;;1.52;1.20;;;25.50;99.90;;;;;;4938675;29;20114;-80
2021/07/16 08:08:51;;;;;;;1.50;1.40;;;25.60;99.90;;;;;;4937473;29;20074;-79
2021/07/16 08:11:17;;;;;;;1.20;1.10;;;25.80;99.90;;;;;;4933887;29;20028;-79
2021/07/16 08:13:43;;;;;;;2.13;1.20;;;26.10;99.90;;;;;;4930018;29;20055;-79
2021/07/16 08:16:09;;;;;;;1.30;1.20;;;26.30;99.90;;;;;;4932950;29;20031;-79
2021/07/16 08:18:35;;;;;;;1.52;1.05;;;26.60;98.80;;;;;;4919579;29;20039;-79
2021/07/16 08:21:00;;;;;;;2.50;1.35;;;27.10;97.00;;;;;;4938351;29;20035;-79
2021/07/16 08:23:26;;;;;;;0.98;0.88;;;27.50;95.00;;;;;;4939649;29;20475;-79
2021/07/16 08:25:52;;;;;;;1.27;1.20;;;27.70;92.50;;;;;;4941429;28;20027;-79
2021/07/16 08:28:18;;;;;;;1.70;0.90;;;27.70;91.30;;;;;;4934917;29;20031;-78
2021/07/16 08:30:44;;;;;;;1.00;1.00;;;28.00;88.60;;;;;;4937664;29;20055;-79
2021/07/16 08:33:10;;;;;;;1.40;0.98;;;28.20;83.70;;;;;;4940819;29;20115;-80
2021/07/16 08:35:35;;;;;;;2.25;0.93;;;28.00;83.30;;;;;;4937934;29;20721;-79
2021/07/16 08:38:02;;;;;;;0.93;0.93;;;28.10;81.80;;;;;;4933463;29;20581;-78
2021/07/16 08:40:28;;;;;;;0.80;0.80;;;28.20;84.50;;;;;;4930089;29;20079;-77
2021/07/16 08:42:57;;;;;;;1.67;0.98;;;28.50;81.30;;;;;;4932825;28;20567;-77
2021/07/16 08:45:23;;;;;;;0.75;0.75;;;28.50;73.60;;;;;;4933359;29;20490;-77
2021/07/16 08:47:50;;;;;;;0.73;0.73;;;28.40;76.20;;;;;;4937158;29;20043;-80
2021/07/16 08:50:16;;;;;;;0.70;0.70;;;28.10;78.10;;;;;;4930996;29;20039;-79
2021/07/16 08:52:45;;;;;;;0.80;0.75;;;27.90;80.30;;;;;;4932670;29;20036;-77
2021/07/16 08:55:12;;;;;;;1.80;0.60;;;27.70;76.30;;;;;;4934813;29;20028;-77
2021/07/16 08:57:38;;;;;;;2.13;0.80;;;27.40;68.30;;;;;;4934762;29;20020;-78
2021/07/16 09:00:08;;;;;;;0.80;0.80;;;27.20;72.50;;;;;;4936962;29;20039;-78
2021/07/16 09:02:35;;;;;;;1.08;1.00;;;26.70;70.70;;;;;;4936757;29;20028;-78
2021/07/16 09:05:07;;;;;;;1.48;1.00;;;26.40;76.60;;;;;;4937224;29;20546;-79
2021/07/16 09:07:42;;;;;;;0.70;0.60;;;26.40;80.20;;;;;;4935271;29;20039;-77
2021/07/16 09:10:09;;;;;;;0.70;0.70;;;26.60;76.70;;;;;;4931546;29;20035;-78
2021/07/16 09:12:36;;;;;;;1.33;0.90;;;26.50;74.00;;;;;;4934586;29;20031;-77
2021/07/16 09:15:14;;;;;;;0.73;0.73;;;26.20;77.90;;;;;;4935237;29;20031;-77
2021/07/16 09:17:43;;;;;;;1.20;0.75;;;26.10;74.80;;;;;;4932518;29;20554;-77
2021/07/16 09:20:21;;;;;;;0.75;0.75;;;25.70;80.10;;;;;;4935251;29;20028;-77
2021/07/16 09:23:10;;;;;;;0.80;0.80;;;25.50;79.90;;;;;;4929003;29;20034;-77
2021/07/16 09:25:38;;;;;;;1.23;0.80;;;25.30;79.00;;;;;;4929338;29;20841;-77
2021/07/16 09:28:04;;;;;;;1.20;0.80;;;25.20;82.80;;;;;;4932818;29;20439;-79
2021/07/16 09:30:30;;;;;;;0.68;0.68;;;25.10;83.40;;;;;;4934616;29;20062;-78
2021/07/16 09:32:58;;;;;;;0.88;0.82;;;25.10;83.10;;;;;;4935331;29;20035;-78
2021/07/16 09:35:37;;;;;;;0.70;0.70;;;25.10;83.50;;;;;;4935733;29;20390;-78
2021/07/16 09:38:12;;;;;;;1.05;0.80;;;25.10;82.40;;;;;;4934383;29;20039;-77
2021/07/16 09:40:53;;;;;;;0.77;0.77;;;25.20;86.20;;;;;;4931401;29;20038;-78
2021/07/16 09:43:23;;;;;;;0.80;0.80;;;25.20;80.10;;;;;;4935549;29;20067;-77
2021/07/16 09:45:59;;;;;;;0.57;0.57;;;25.10;85.00;;;;;;4936722;29;20028;-77
2021/07/16 09:48:37;;;;;;;1.00;0.93;;;25.00;84.70;;;;;;4933483;29;20042;-77
2021/07/16 09:51:18;;;;;;;0.80;0.80;;;25.00;84.10;;;;;;4934163;29;20125;-77
2021/07/16 09:54:00;;;;;;;0.70;0.70;;;24.90;81.30;;;;;;4930247;29;20040;-78
2021/07/16 09:56:28;;;;;;;0.77;0.77;;;24.70;85.70;;;;;;4926196;29;20127;-77
2021/07/16 09:59:06;;;;;;;0.60;0.60;;;24.50;89.60;;;;;;4931002;29;20379;-77
2021/07/16 10:01:43;;;;;;;1.35;1.02;;;24.40;83.50;;;;;;4930376;29;20446;-77
2021/07/16 10:04:21;;;;;;;0.80;0.80;;;24.40;83.70;;;;;;4936523;29;20177;-77
2021/07/16 10:06:51;;;;;;;2.42;0.88;;;24.40;86.00;;;;;;4934975;29;20039;-77
2021/07/16 10:09:18;;;;;;;0.82;0.80;;;24.30;89.90;;;;;;4929161;29;20607;-76
2021/07/16 10:11:49;;;;;;;1.27;1.00;;;24.30;85.70;;;;;;4936187;29;20032;-77
2021/07/16 10:14:15;;;;;;;0.90;0.90;;;24.30;90.40;;;;;;4935397;29;20070;-77
2021/07/16 10:16:45;;;;;;;0.63;0.63;;;24.30;89.70;;;;;;4932921;29;20127;-77
2021/07/16 10:19:13;;;;;;;1.42;1.05;;;24.20;90.80;;;;;;4936817;29;20055;-77
2021/07/16 10:21:40;;;;;;;3.08;1.00;;;24.20;85.30;;;;;;4932950;29;20506;-78
2021/07/16 10:24:07;;;;;;;1.90;1.00;;;24.20;90.60;;;;;;4934535;29;20057;-78
2021/07/16 10:26:34;;;;;;;1.20;1.10;;;24.20;91.10;;;;;;4935408;29;20538;-78
2021/07/16 10:29:00;;;;;;;1.05;0.95;;;24.20;91.70;;;;;;4938369;29;20047;-76
2021/07/16 10:31:34;;;;;;;1.00;0.98;;;24.30;91.20;;;;;;4933519;29;20083;-77
2021/07/16 10:34:01;;;;;;;1.00;1.00;;;24.30;89.80;;;;;;4930134;29;20932;-76
2021/07/16 10:36:42;;;;;;;3.92;1.30;;;24.30;86.00;;;;;;4926881;29;20043;-76
2021/07/16 10:39:18;;;;;;;0.88;0.88;;;24.30;88.50;;;;;;4916351;29;20064;-77
2021/07/16 10:41:44;;;;;;;1.20;1.10;;;24.20;89.30;;;;;;4923257;29;20494;-78
2021/07/16 10:44:12;;;;;;;1.08;1.00;;;24.20;90.20;;;;;;4921172;29;20055;-77
2021/07/16 10:46:43;;;;;;;2.00;1.05;;;24.10;88.80;;;;;;4926803;29;20115;-77
2021/07/16 10:49:11;;;;;;;1.30;1.20;;;24.20;93.00;;;;;;4926882;29;20051;-77
2021/07/16 10:51:37;;;;;;;1.05;1.05;;;24.20;90.50;;;;;;4925806;29;20343;-77
2021/07/16 10:54:11;;;;;;;1.63;0.90;;;24.30;92.00;;;;;;4929662;29;20906;-76
2021/07/16 10:56:45;;;;;;;0.80;0.80;;;24.40;84.00;;;;;;4938175;29;20039;-76
2021/07/16 10:59:48;;;;;;;0.93;0.90;;;24.40;88.00;;;;;;4928158;29;20039;-76
2021/07/16 11:02:42;;;;;;;1.33;1.23;;;24.30;88.30;;;;;;4925768;29;20446;-76
2021/07/16 11:05:32;;;;;;;1.30;1.20;;;24.30;90.10;;;;;;4928305;29;20039;-76
2021/07/16 11:08:03;;;;;;;2.83;1.20;;;24.40;90.70;;;;;;4929558;29;20413;-77
2021/07/16 11:10:47;;;;;;;1.35;1.25;;;24.50;90.10;;;;;;4918419;29;20024;-76
2021/07/16 11:13:37;;;;;;;3.63;1.20;;;24.70;87.10;;;;;;4928895;29;20043;-76
2021/07/16 11:16:27;;;;;;;1.05;0.90;;;24.70;83.90;;;;;;4928604;29;20043;-78
2021/07/16 11:19:09;;;;;;;0.93;0.88;;;24.70;85.60;;;;;;4931961;29;20023;-77
2021/07/16 11:21:47;;;;;;;1.58;1.10;;;24.70;88.30;;;;;;4927440;29;20027;-77
2021/07/16 11:24:18;;;;;;;1.15;1.15;;;24.90;87.00;;;;;;4935766;29;20060;-77
2021/07/16 11:26:56;;;;;;;1.30;1.20;;;24.90;85.50;;;;;;4935574;29;20079;-77
2021/07/16 11:29:43;;;;;;;1.45;1.35;;;25.10;86.60;;;;;;4930865;29;20031;-77
2021/07/16 11:32:09;;;;;;;1.15;1.05;;;25.20;90.00;;;;;;4931939;29;20128;-77
2021/07/16 11:34:36;;;;;;;1.63;1.52;;;25.30;92.10;;;;;;4934068;29;20059;-77
2021/07/16 11:37:03;;;;;;;1.75;1.42;;;25.30;90.50;;;;;;4933192;29;20042;-77
2021/07/16 11:39:39;;;;;;;1.75;1.50;;;25.20;91.50;;;;;;4931827;29;20059;-77
2021/07/16 11:42:07;;;;;;;1.67;1.58;;;25.00;92.70;;;;;;4938011;29;20054;-77
2021/07/16 11:44:35;;;;;;;1.60;1.50;;;24.90;92.90;;;;;;4929703;28;20024;-77
2021/07/16 11:47:20;;;;;;;1.52;1.42;;;24.90;94.60;;;;;;4932163;29;20561;-77
2021/07/16 11:49:48;;;;;;;1.42;1.33;;;25.00;95.00;;;;;;4930205;29;20066;-77
2021/07/16 11:52:16;;;;;;;1.63;1.52;;;25.20;93.40;;;;;;4936406;29;20027;-77
2021/07/16 11:54:42;;;;;;;1.52;1.42;;;25.30;94.70;;;;;;4937816;29;20035;-78
2021/07/16 11:57:08;;;;;;;1.52;1.42;;;25.60;95.90;;;;;;4932663;29;20641;-77
2021/07/16 11:59:34;;;;;;;2.92;1.67;;;25.80;93.40;;;;;;4935219;29;20064;-78
2021/07/16 12:02:26;;;;;;;1.92;1.70;;;26.20;95.70;;;;;;4932855;29;20039;-77
2021/07/16 12:05:00;;;;;;;2.55;1.52;;;26.50;91.60;;;;;;4928925;29;20044;-77
2021/07/16 12:07:34;;;;;;;1.67;1.30;;;26.70;85.60;;;;;;4930850;29;20032;-77
2021/07/16 12:09:59;;;;;;;1.30;1.20;;;27.10;90.20;;;;;;4936372;29;20055;-77
2021/07/16 12:12:25;;;;;;;1.50;1.40;;;27.30;90.70;;;;;;4932724;29;20074;-76
2021/07/16 12:14:55;;;;;;;1.40;1.30;;;27.30;82.20;;;;;;4930984;29;20054;-76
2021/07/16 12:17:28;;;;;;;1.30;1.20;;;27.10;76.60;;;;;;4930983;29;20123;-77
2021/07/16 12:19:56;;;;;;;1.40;1.30;;;27.20;80.50;;;;;;4931827;29;20833;-78
2021/07/16 12:22:25;;;;;;;1.08;1.08;;;27.20;88.20;;;;;;4934455;29;20056;-78
2021/07/16 12:24:52;;;;;;;1.30;1.20;;;27.20;85.50;;;;;;4931979;29;20039;-77
2021/07/16 12:27:18;;;;;;;1.23;1.15;;;27.30;80.90;;;;;;4933225;29;20024;-77
2021/07/16 12:29:55;;;;;;;1.30;1.20;;;27.40;78.90;;;;;;4930233;29;20047;-76
2021/07/16 12:32:44;;;;;;;1.20;1.10;;;27.60;73.80;;;;;;4925329;29;20032;-77
2021/07/16 12:35:28;;;;;;;1.15;1.15;;;27.60;72.60;;;;;;4936370;29;20078;-76
2021/07/16 12:38:03;;;;;;;1.23;1.20;;;27.60;76.30;;;;;;4918353;29;20046;-77
2021/07/16 12:40:30;;;;;;;1.40;1.30;;;27.60;77.90;;;;;;4922605;29;20027;-76
2021/07/16 12:43:11;;;;;;;1.55;1.45;;;27.60;79.10;;;;;;4932160;29;20028;-79
2021/07/16 12:45:47;;;;;;;1.55;1.40;;;27.80;79.10;;;;;;4931864;29;20038;-78
2021/07/16 12:48:36;;;;;;;1.40;1.30;;;28.10;81.30;;;;;;4929419;29;20039;-77
2021/07/16 12:51:12;;;;;;;1.60;1.50;;;28.30;75.30;;;;;;4940945;29;20118;-78
2021/07/16 12:53:55;;;;;;;4.57;1.40;;;28.30;74.00;;;;;;4924510;29;20028;-77
2021/07/16 12:56:28;;;;;;;2.13;1.30;;;28.30;73.90;;;;;;4927503;29;20035;-77